createdAt,value
2018-05-15T00:03:10.142Z,2.17
2018-05-15T00:08:12.859Z,2.50
2018-05-15T00:13:16.241Z,2.50
2018-05-15T00:18:18.901Z,2.23
2018-05-15T00:23:21.861Z,2.70
2018-05-15T00:28:24.815Z,2.10
2018-05-15T00:33:27.570Z,2.50
2018-05-15T00:38:30.462Z,2.80
2018-05-15T00:43:33.191Z,2.80
2018-05-15T00:48:36.028Z,2.50
2018-05-15T00:53:39.395Z,2.77
2018-05-15T00:58:42.036Z,2.67
2018-05-15T01:03:44.729Z,2.17
2018-05-15T01:08:47.348Z,2.50
2018-05-15T01:13:50.027Z,3.47
2018-05-15T01:18:52.633Z,3.07
2018-05-15T01:23:55.976Z,2.60
2018-05-15T01:28:58.615Z,2.43
2018-05-15T01:34:01.313Z,2.17
2018-05-15T01:39:04.037Z,2.70
2018-05-15T01:44:06.742Z,3.30
2018-05-15T01:49:09.468Z,3.60
2018-05-15T01:54:12.109Z,2.90
2018-05-15T01:59:14.726Z,2.53
2018-05-15T02:04:18.236Z,2.67
2018-05-15T02:09:20.891Z,3.70
2018-05-15T02:14:25.106Z,3.80
2018-05-15T02:19:27.842Z,3.83
2018-05-15T02:24:30.489Z,2.80
2018-05-15T02:29:33.153Z,3.23
2018-05-15T02:34:36.514Z,4.10
2018-05-15T02:39:39.125Z,2.83
2018-05-15T02:44:41.750Z,3.37
2018-05-15T02:49:45.195Z,3.30
2018-05-15T02:54:48.182Z,3.33
2018-05-15T02:59:51.549Z,2.63
2018-05-15T03:04:54.305Z,4.03
2018-05-15T03:09:57.051Z,3.27
2018-05-15T03:14:59.773Z,3.43
2018-05-15T03:20:02.397Z,3.80
2018-05-15T03:25:05.811Z,4.37
2018-05-15T03:30:09.157Z,3.30
2018-05-15T03:35:12.639Z,3.80
2018-05-15T03:40:15.292Z,3.00
2018-05-15T03:45:17.942Z,3.80
2018-05-15T03:50:20.650Z,2.83
2018-05-15T03:55:23.361Z,3.70
2018-05-15T04:00:38.464Z,4.23
2018-05-15T04:05:54.771Z,3.67
2018-05-15T04:10:58.266Z,3.40
2018-05-15T04:16:00.852Z,3.23
2018-05-15T04:21:03.604Z,3.43
2018-05-15T04:26:06.477Z,3.10
2018-05-15T04:31:09.154Z,3.10
2018-05-15T04:36:11.770Z,3.70
2018-05-15T04:41:14.448Z,4.20
2018-05-15T04:46:17.090Z,3.87
2018-05-15T04:51:19.678Z,3.97
2018-05-15T04:56:22.362Z,3.90
2018-05-15T05:01:25.797Z,4.27
2018-05-15T05:06:28.463Z,3.50
2018-05-15T05:11:31.137Z,4.50
2018-05-15T05:16:35.240Z,3.60
2018-05-15T05:21:37.838Z,3.90
2018-05-15T05:26:40.411Z,4.10
2018-05-15T05:31:43.021Z,4.93
2018-05-15T05:36:45.650Z,3.77
2018-05-15T05:41:49.043Z,3.70
2018-05-15T05:46:51.675Z,3.90
2018-05-15T05:51:55.221Z,3.90
2018-05-15T05:56:57.747Z,3.53
2018-05-15T06:02:01.880Z,4.47
2018-05-15T06:07:04.515Z,4.20
2018-05-15T06:12:07.745Z,4.33
2018-05-15T06:17:10.334Z,4.60
2018-05-15T06:22:13.770Z,4.13
2018-05-15T06:27:17.143Z,3.63
2018-05-15T06:32:19.801Z,4.07
2018-05-15T06:37:22.742Z,3.77
2018-05-15T06:42:25.320Z,3.23
2018-05-15T06:47:28.056Z,3.90
2018-05-15T06:52:30.669Z,4.00
2018-05-15T06:57:33.274Z,2.87
2018-05-15T07:02:36.855Z,3.93
2018-05-15T07:07:39.505Z,3.23
2018-05-15T07:12:42.068Z,2.67
2018-05-15T07:17:44.796Z,3.63
2018-05-15T07:22:48.148Z,3.70
2018-05-15T07:27:51.574Z,3.33
2018-05-15T07:32:54.293Z,3.20
2018-05-15T07:37:56.889Z,3.27
2018-05-15T07:42:59.489Z,3.10
2018-05-15T07:48:02.123Z,3.30
2018-05-15T07:53:04.832Z,3.40
2018-05-15T07:58:07.441Z,2.87
2018-05-15T08:03:10.058Z,2.90
2018-05-15T08:08:12.584Z,3.30
2018-05-15T08:13:15.264Z,2.70
2018-05-15T08:18:17.971Z,3.20
2018-05-15T08:23:20.542Z,2.63
2018-05-15T08:28:23.337Z,2.27
2018-05-15T08:33:26.014Z,2.23
2018-05-15T08:38:28.626Z,2.70
2018-05-15T08:43:31.429Z,2.40
2018-05-15T08:48:34.109Z,2.20
2018-05-15T08:53:37.330Z,2.60
2018-05-15T08:58:40.056Z,2.63
2018-05-15T09:03:42.707Z,2.43
2018-05-15T09:08:45.332Z,2.33
2018-05-15T09:13:48.812Z,2.30
2018-05-15T09:18:51.474Z,3.00
2018-05-15T09:23:54.177Z,3.20
2018-05-15T09:28:57.648Z,2.50
2018-05-15T09:34:00.311Z,2.70
2018-05-15T09:39:02.997Z,2.80
2018-05-15T09:44:05.687Z,2.80
2018-05-15T09:49:08.410Z,2.67
2018-05-15T09:54:11.137Z,2.60
2018-05-15T09:59:14.611Z,2.50
2018-05-15T10:04:18.169Z,3.07
2018-05-15T10:09:20.745Z,2.80
2018-05-15T10:14:23.396Z,2.30
2018-05-15T10:19:26.055Z,2.50
2018-05-15T10:24:28.836Z,2.80
2018-05-15T10:29:32.387Z,2.60
2018-05-15T10:34:35.045Z,2.53
2018-05-15T10:39:37.658Z,2.80
2018-05-15T10:44:41.261Z,2.47
2018-05-15T10:49:43.879Z,3.10
2018-05-15T10:54:46.496Z,2.30
2018-05-15T10:59:49.104Z,1.87
2018-05-15T11:04:51.724Z,2.17
2018-05-15T11:09:54.564Z,2.13
2018-05-15T11:14:58.047Z,1.70
2018-05-15T11:20:12.651Z,2.50
2018-05-15T11:25:15.334Z,1.83
2018-05-15T11:30:18.063Z,2.43
2018-05-15T11:35:20.730Z,2.20
2018-05-15T11:40:24.634Z,2.13
2018-05-15T11:45:27.945Z,1.83
2018-05-15T11:50:31.285Z,1.60
2018-05-15T11:55:35.295Z,2.33
2018-05-15T12:00:35.906Z,1.83
2018-05-15T12:05:39.779Z,2.30
2018-05-15T12:10:42.511Z,1.60
2018-05-15T12:15:46.570Z,1.80
2018-05-15T12:20:50.286Z,1.60
2018-05-15T12:25:54.527Z,2.00
2018-05-15T12:30:57.390Z,1.77
2018-05-15T12:36:00.059Z,1.73
2018-05-15T12:41:02.732Z,1.57
2018-05-15T12:46:05.502Z,5.53
2018-05-15T12:51:09.137Z,1.40
2018-05-15T12:56:11.806Z,1.40
2018-05-15T13:01:14.549Z,1.27
2018-05-15T13:06:17.178Z,1.50
2018-05-15T13:11:20.402Z,1.30
2018-05-15T13:16:23.083Z,1.70
2018-05-15T13:21:25.721Z,1.27
2018-05-15T13:26:28.326Z,1.23
2018-05-15T13:31:30.952Z,1.73
2018-05-15T13:36:33.683Z,1.33
2018-05-15T13:41:37.230Z,1.50
2018-05-15T13:46:39.921Z,1.70
2018-05-15T13:51:42.565Z,1.17
2018-05-15T13:56:45.340Z,1.60
2018-05-15T14:01:48.782Z,1.70
2018-05-15T14:06:51.471Z,2.23
2018-05-15T14:11:54.159Z,1.93
2018-05-15T14:16:56.741Z,1.67
2018-05-15T14:22:00.169Z,1.93
2018-05-15T14:27:03.158Z,2.03
2018-05-15T14:32:05.809Z,2.47
2018-05-15T14:37:08.828Z,2.93
2018-05-15T14:42:23.296Z,2.60
2018-05-15T14:47:25.870Z,3.63
2018-05-15T14:52:29.304Z,3.37
2018-05-15T14:57:31.877Z,3.33
2018-05-15T15:02:34.437Z,3.40
2018-05-15T15:07:37.010Z,3.90
2018-05-15T15:12:39.567Z,3.60
2018-05-15T15:17:42.232Z,3.50
2018-05-15T15:22:45.569Z,4.00
2018-05-15T15:27:48.268Z,3.33
2018-05-15T15:32:50.874Z,4.30
2018-05-15T15:37:53.532Z,4.20
2018-05-15T15:42:57.063Z,2.10
2018-05-15T15:48:00.176Z,2.30
2018-05-15T15:53:04.338Z,1.53
2018-05-15T15:58:08.057Z,1.80
2018-05-15T16:03:12.039Z,2.07
2018-05-15T16:08:15.164Z,2.20
2018-05-15T16:13:18.073Z,2.07
2018-05-15T16:18:22.643Z,1.70
2018-05-15T16:23:25.788Z,2.00
2018-05-15T16:28:30.976Z,2.20
2018-05-15T16:33:34.413Z,2.43
2018-05-15T16:38:39.340Z,2.10
2018-05-15T16:43:42.757Z,1.73
2018-05-15T16:48:48.313Z,1.83
2018-05-15T16:53:53.323Z,1.60
2018-05-15T16:58:56.998Z,1.93
2018-05-15T17:04:04.574Z,1.80
2018-05-15T17:09:09.856Z,1.93
2018-05-15T17:14:18.149Z,2.20
2018-05-15T17:19:21.140Z,1.90
2018-05-15T17:24:23.870Z,3.13
2018-05-15T17:29:26.726Z,3.10
2018-05-15T17:34:29.802Z,3.27
2018-05-15T17:39:35.305Z,2.90
2018-05-15T17:44:38.909Z,3.00
2018-05-15T17:49:43.483Z,3.27
2018-05-15T17:54:47.168Z,3.50
2018-05-15T17:59:51.905Z,3.47
2018-05-15T18:04:55.960Z,3.17
2018-05-15T18:09:59.331Z,3.10
2018-05-15T18:15:05.741Z,2.40
2018-05-15T18:20:09.403Z,3.80
2018-05-15T18:25:13.046Z,3.10
2018-05-15T18:30:16.884Z,2.80
2018-05-15T18:35:19.971Z,2.70
2018-05-15T18:45:29.850Z,3.10
2018-05-15T18:50:33.010Z,3.13
2018-05-15T18:55:35.865Z,2.00
2018-05-15T19:00:42.979Z,3.27
2018-05-15T19:05:46.221Z,3.80
2018-05-15T19:10:51.153Z,2.77
2018-05-15T19:15:54.889Z,3.20
2018-05-15T19:20:59.625Z,3.10
2018-05-15T19:26:03.666Z,3.23
2018-05-15T19:31:06.813Z,2.50
2018-05-15T19:36:11.369Z,4.10
2018-05-15T19:41:19.947Z,2.93
2018-05-15T19:46:22.941Z,3.47
2018-05-15T19:51:26.277Z,3.60
2018-05-15T19:56:29.268Z,3.40
2018-05-15T20:01:31.881Z,5.60
2018-05-15T20:06:34.595Z,3.30
2018-05-15T20:11:39.567Z,5.83
2018-05-15T20:16:43.732Z,3.67
2018-05-15T20:21:48.082Z,3.53
2018-05-15T20:26:50.857Z,3.43
2018-05-15T20:31:54.247Z,3.60
2018-05-15T20:36:57.750Z,3.83
2018-05-15T20:42:03.922Z,4.40
2018-05-15T20:47:06.555Z,3.70
2018-05-15T20:52:09.663Z,4.20
2018-05-15T20:57:12.637Z,3.93
2018-05-15T21:02:15.694Z,4.20
2018-05-15T21:07:18.497Z,3.87
2018-05-15T21:12:21.527Z,4.20
2018-05-15T21:17:24.820Z,4.83
2018-05-15T21:22:27.614Z,3.70
2018-05-15T21:27:30.466Z,4.17
2018-05-15T21:32:35.151Z,3.43
2018-05-15T21:37:38.596Z,3.70
2018-05-15T21:42:41.576Z,4.20
2018-05-15T21:47:45.584Z,3.77
2018-05-15T21:52:48.503Z,3.87
2018-05-15T21:57:51.277Z,4.10
2018-05-15T22:02:54.202Z,4.10
2018-05-15T22:07:57.180Z,4.10
2018-05-15T22:13:11.982Z,5.10
2018-05-15T22:18:28.306Z,3.60
2018-05-15T22:23:30.708Z,4.60
2018-05-15T22:33:41.310Z,4.70
2018-05-15T22:38:44.383Z,5.03
2018-05-15T22:43:47.353Z,4.83
2018-05-15T22:48:51.029Z,5.20
2018-05-15T22:53:54.196Z,4.40
2018-05-15T22:58:57.646Z,6.03
2018-05-15T23:04:04.024Z,5.50
2018-05-15T23:09:10.449Z,5.80
2018-05-15T23:14:13.200Z,5.60
2018-05-15T23:19:16.187Z,5.60
2018-05-15T23:24:18.906Z,5.20
2018-05-15T23:29:22.308Z,6.33
2018-05-15T23:34:25.603Z,6.20
2018-05-15T23:39:28.599Z,5.47
2018-05-15T23:44:31.756Z,5.57
2018-05-15T23:49:35.228Z,6.10
2018-05-15T23:54:38.623Z,5.87
2018-05-15T23:59:42.105Z,4.77
